sensor_id;sensor_type;location;lat;lon;timestamp;pressure;altitude;pressure_sealevel;temperature;humidity
34921;BME280;21128;50.016;20.002;2024-02-04T00:02:15;98740.12;;;7.78;100.00
34921;BME280;21128;50.016;20.002;2024-02-04T00:04:42;98739.52;;;7.75;100.00
34921;BME280;21128;50.016;20.002;2024-02-04T00:07:09;98737.27;;;7.71;100.00
34921;BME280;21128;50.016;20.002;2024-02-04T00:09:35;98740.95;;;7.67;100.00
34921;BME280;21128;50.016;20.002;2024-02-04T00:12:03;98735.39;;;7.61;100.00
34921;BME280;21128;50.016;20.002;2024-02-04T00:14:30;98731.59;;;7.57;100.00
34921;BME280;21128;50.016;20.002;2024-02-04T00:16:57;98726.71;;;7.55;100.00
34921;BME280;21128;50.016;20.002;2024-02-04T00:19:25;98726.69;;;7.53;100.00
34921;BME280;21128;50.016;20.002;2024-02-04T00:21:52;98730.09;;;7.52;100.00
34921;BME280;21128;50.016;20.002;2024-02-04T00:24:19;98723.12;;;7.50;100.00
34921;BME280;21128;50.016;20.002;2024-02-04T00:26:46;98718.52;;;7.49;100.00
34921;BME280;21128;50.016;20.002;2024-02-04T00:29:13;98716.96;;;7.46;100.00
34921;BME280;21128;50.016;20.002;2024-02-04T00:31:40;98707.41;;;7.46;100.00
34921;BME280;21128;50.016;20.002;2024-02-04T00:34:06;98706.17;;;7.44;100.00
34921;BME280;21128;50.016;20.002;2024-02-04T00:36:33;98702.69;;;7.42;100.00
34921;BME280;21128;50.016;20.002;2024-02-04T00:39:00;98697.06;;;7.41;100.00
34921;BME280;21128;50.016;20.002;2024-02-04T00:41:27;98695.12;;;7.41;100.00
34921;BME280;21128;50.016;20.002;2024-02-04T00:43:54;98694.11;;;7.43;100.00
34921;BME280;21128;50.016;20.002;2024-02-04T00:46:40;98693.98;;;7.48;100.00
34921;BME280;21128;50.016;20.002;2024-02-04T00:49:06;98702.48;;;7.49;100.00
34921;BME280;21128;50.016;20.002;2024-02-04T00:51:33;98708.20;;;7.51;100.00
34921;BME280;21128;50.016;20.002;2024-02-04T00:54:00;98704.88;;;7.53;100.00
34921;BME280;21128;50.016;20.002;2024-02-04T00:56:27;98705.63;;;7.55;100.00
34921;BME280;21128;50.016;20.002;2024-02-04T00:58:53;98718.10;;;7.56;100.00
34921;BME280;21128;50.016;20.002;2024-02-04T01:01:20;98713.08;;;7.55;100.00
34921;BME280;21128;50.016;20.002;2024-02-04T01:03:47;98716.97;;;7.54;100.00
34921;BME280;21128;50.016;20.002;2024-02-04T01:06:14;98708.92;;;7.53;100.00
34921;BME280;21128;50.016;20.002;2024-02-04T01:08:40;98713.86;;;7.52;100.00
34921;BME280;21128;50.016;20.002;2024-02-04T01:11:07;98708.83;;;7.50;100.00
34921;BME280;21128;50.016;20.002;2024-02-04T01:13:34;98705.27;;;7.44;100.00
34921;BME280;21128;50.016;20.002;2024-02-04T01:16:01;98704.32;;;7.37;100.00
34921;BME280;21128;50.016;20.002;2024-02-04T01:18:27;98704.37;;;7.30;100.00
34921;BME280;21128;50.016;20.002;2024-02-04T01:20:54;98704.06;;;7.23;100.00
34921;BME280;21128;50.016;20.002;2024-02-04T01:23:21;98706.03;;;7.18;100.00
34921;BME280;21128;50.016;20.002;2024-02-04T01:25:48;98697.52;;;7.14;100.00
34921;BME280;21128;50.016;20.002;2024-02-04T01:28:14;98702.00;;;7.10;100.00
34921;BME280;21128;50.016;20.002;2024-02-04T01:30:41;98691.58;;;7.05;100.00
34921;BME280;21128;50.016;20.002;2024-02-04T01:33:08;98693.63;;;7.03;100.00
34921;BME280;21128;50.016;20.002;2024-02-04T01:35:34;98692.15;;;7.02;100.00
34921;BME280;21128;50.016;20.002;2024-02-04T01:38:01;98694.42;;;7.00;100.00
34921;BME280;21128;50.016;20.002;2024-02-04T01:40:28;98691.98;;;6.98;100.00
34921;BME280;21128;50.016;20.002;2024-02-04T01:42:55;98685.67;;;6.96;100.00
34921;BME280;21128;50.016;20.002;2024-02-04T01:45:22;98688.76;;;6.95;100.00
34921;BME280;21128;50.016;20.002;2024-02-04T01:47:51;98690.04;;;6.94;100.00
34921;BME280;21128;50.016;20.002;2024-02-04T01:50:20;98688.94;;;6.92;100.00
34921;BME280;21128;50.016;20.002;2024-02-04T01:52:48;98694.99;;;6.91;100.00
34921;BME280;21128;50.016;20.002;2024-02-04T01:55:16;98687.11;;;6.89;100.00
34921;BME280;21128;50.016;20.002;2024-02-04T01:57:43;98682.14;;;6.86;100.00
34921;BME280;21128;50.016;20.002;2024-02-04T02:00:10;98673.02;;;6.83;100.00
34921;BME280;21128;50.016;20.002;2024-02-04T02:02:39;98670.56;;;6.79;100.00
34921;BME280;21128;50.016;20.002;2024-02-04T02:05:07;98669.44;;;6.75;100.00
34921;BME280;21128;50.016;20.002;2024-02-04T02:07:35;98669.80;;;6.73;100.00
34921;BME280;21128;50.016;20.002;2024-02-04T02:10:01;98662.38;;;6.70;100.00
34921;BME280;21128;50.016;20.002;2024-02-04T02:12:39;98662.43;;;6.67;100.00
34921;BME280;21128;50.016;20.002;2024-02-04T02:15:13;98652.67;;;6.65;100.00
34921;BME280;21128;50.016;20.002;2024-02-04T02:20:29;98654.21;;;6.61;100.00
34921;BME280;21128;50.016;20.002;2024-02-04T02:23:02;98654.89;;;6.59;100.00
34921;BME280;21128;50.016;20.002;2024-02-04T02:25:30;98652.90;;;6.58;100.00
34921;BME280;21128;50.016;20.002;2024-02-04T02:27:57;98657.02;;;6.58;100.00
34921;BME280;21128;50.016;20.002;2024-02-04T02:30:24;98656.22;;;6.60;100.00
34921;BME280;21128;50.016;20.002;2024-02-04T02:32:51;98659.84;;;6.60;100.00
34921;BME280;21128;50.016;20.002;2024-02-04T02:35:18;98657.35;;;6.61;100.00
34921;BME280;21128;50.016;20.002;2024-02-04T02:40:49;98654.95;;;6.60;100.00
34921;BME280;21128;50.016;20.002;2024-02-04T02:43:18;98654.08;;;6.60;100.00
34921;BME280;21128;50.016;20.002;2024-02-04T02:45:45;98655.29;;;6.61;100.00
34921;BME280;21128;50.016;20.002;2024-02-04T02:48:13;98656.73;;;6.62;100.00
34921;BME280;21128;50.016;20.002;2024-02-04T02:50:40;98660.10;;;6.63;100.00
34921;BME280;21128;50.016;20.002;2024-02-04T02:53:07;98654.34;;;6.66;100.00
34921;BME280;21128;50.016;20.002;2024-02-04T02:55:33;98653.77;;;6.69;100.00
34921;BME280;21128;50.016;20.002;2024-02-04T02:58:00;98661.60;;;6.71;100.00
34921;BME280;21128;50.016;20.002;2024-02-04T03:00:27;98672.69;;;6.73;100.00
34921;BME280;21128;50.016;20.002;2024-02-04T03:02:53;98670.42;;;6.75;100.00
34921;BME280;21128;50.016;20.002;2024-02-04T03:05:20;98679.06;;;6.76;100.00
34921;BME280;21128;50.016;20.002;2024-02-04T03:07:47;98681.27;;;6.79;100.00
34921;BME280;21128;50.016;20.002;2024-02-04T03:10:14;98703.10;;;6.81;100.00
34921;BME280;21128;50.016;20.002;2024-02-04T03:12:40;98711.55;;;6.82;100.00
34921;BME280;21128;50.016;20.002;2024-02-04T03:15:07;98711.33;;;6.83;100.00
34921;BME280;21128;50.016;20.002;2024-02-04T03:17:34;98710.73;;;6.81;100.00
34921;BME280;21128;50.016;20.002;2024-02-04T03:20:01;98714.58;;;6.81;100.00
34921;BME280;21128;50.016;20.002;2024-02-04T03:22:28;98713.84;;;6.82;100.00
34921;BME280;21128;50.016;20.002;2024-02-04T03:24:54;98712.04;;;6.82;100.00
34921;BME280;21128;50.016;20.002;2024-02-04T03:27:21;98713.04;;;6.83;100.00
34921;BME280;21128;50.016;20.002;2024-02-04T03:29:48;98718.76;;;6.83;100.00
34921;BME280;21128;50.016;20.002;2024-02-04T03:32:15;98711.89;;;6.82;100.00
34921;BME280;21128;50.016;20.002;2024-02-04T03:34:42;98702.06;;;6.81;100.00
34921;BME280;21128;50.016;20.002;2024-02-04T03:37:08;98696.73;;;6.80;100.00
34921;BME280;21128;50.016;20.002;2024-02-04T03:39:35;98692.79;;;6.77;100.00
34921;BME280;21128;50.016;20.002;2024-02-04T03:42:02;98684.87;;;6.74;100.00
34921;BME280;21128;50.016;20.002;2024-02-04T03:44:29;98678.38;;;6.72;100.00
34921;BME280;21128;50.016;20.002;2024-02-04T03:46:55;98676.48;;;6.69;100.00
34921;BME280;21128;50.016;20.002;2024-02-04T03:49:22;98687.16;;;6.67;100.00
34921;BME280;21128;50.016;20.002;2024-02-04T03:51:49;98689.60;;;6.65;100.00
34921;BME280;21128;50.016;20.002;2024-02-04T03:54:16;98689.13;;;6.62;100.00
34921;BME280;21128;50.016;20.002;2024-02-04T03:56:42;98685.48;;;6.60;100.00
34921;BME280;21128;50.016;20.002;2024-02-04T03:59:09;98687.23;;;6.57;100.00
34921;BME280;21128;50.016;20.002;2024-02-04T04:01:37;98696.88;;;6.56;100.00
34921;BME280;21128;50.016;20.002;2024-02-04T04:04:04;98693.52;;;6.55;100.00
34921;BME280;21128;50.016;20.002;2024-02-04T04:06:31;98692.42;;;6.53;100.00
34921;BME280;21128;50.016;20.002;2024-02-04T04:08:58;98699.02;;;6.53;100.00
34921;BME280;21128;50.016;20.002;2024-02-04T04:11:26;98693.25;;;6.52;100.00
34921;BME280;21128;50.016;20.002;2024-02-04T04:13:52;98691.86;;;6.49;100.00
34921;BME280;21128;50.016;20.002;2024-02-04T04:16:23;98697.81;;;6.48;100.00
34921;BME280;21128;50.016;20.002;2024-02-04T04:18:49;98699.93;;;6.48;100.00
34921;BME280;21128;50.016;20.002;2024-02-04T04:21:16;98701.05;;;6.47;100.00
34921;BME280;21128;50.016;20.002;2024-02-04T04:23:43;98698.67;;;6.46;100.00
34921;BME280;21128;50.016;20.002;2024-02-04T04:26:11;98700.10;;;6.46;100.00
34921;BME280;21128;50.016;20.002;2024-02-04T04:28:37;98702.69;;;6.46;100.00
34921;BME280;21128;50.016;20.002;2024-02-04T04:31:04;98699.08;;;6.46;100.00
34921;BME280;21128;50.016;20.002;2024-02-04T04:33:31;98699.05;;;6.46;100.00
34921;BME280;21128;50.016;20.002;2024-02-04T04:35:58;98697.23;;;6.45;100.00
34921;BME280;21128;50.016;20.002;2024-02-04T04:38:25;98698.18;;;6.44;100.00
34921;BME280;21128;50.016;20.002;2024-02-04T04:40:51;98697.49;;;6.43;100.00
34921;BME280;21128;50.016;20.002;2024-02-04T04:43:19;98693.04;;;6.43;100.00
34921;BME280;21128;50.016;20.002;2024-02-04T04:45:45;98699.80;;;6.43;100.00
34921;BME280;21128;50.016;20.002;2024-02-04T04:48:12;98698.14;;;6.42;100.00
34921;BME280;21128;50.016;20.002;2024-02-04T04:50:39;98690.91;;;6.41;100.00
34921;BME280;21128;50.016;20.002;2024-02-04T04:53:06;98687.28;;;6.41;100.00
34921;BME280;21128;50.016;20.002;2024-02-04T04:55:33;98687.69;;;6.40;100.00
34921;BME280;21128;50.016;20.002;2024-02-04T04:58:00;98686.90;;;6.39;100.00
34921;BME280;21128;50.016;20.002;2024-02-04T05:00:26;98687.38;;;6.37;100.00
34921;BME280;21128;50.016;20.002;2024-02-04T05:02:53;98683.68;;;6.36;100.00
34921;BME280;21128;50.016;20.002;2024-02-04T05:05:20;98681.05;;;6.33;100.00
34921;BME280;21128;50.016;20.002;2024-02-04T05:07:47;98680.31;;;6.32;100.00
34921;BME280;21128;50.016;20.002;2024-02-04T05:10:13;98682.80;;;6.32;100.00
34921;BME280;21128;50.016;20.002;2024-02-04T05:12:40;98683.30;;;6.32;100.00
34921;BME280;21128;50.016;20.002;2024-02-04T05:15:08;98679.48;;;6.32;100.00
34921;BME280;21128;50.016;20.002;2024-02-04T05:17:35;98680.56;;;6.33;100.00
34921;BME280;21128;50.016;20.002;2024-02-04T05:20:01;98679.04;;;6.35;100.00
34921;BME280;21128;50.016;20.002;2024-02-04T05:22:30;98684.88;;;6.36;100.00
34921;BME280;21128;50.016;20.002;2024-02-04T05:24:56;98682.23;;;6.36;100.00
34921;BME280;21128;50.016;20.002;2024-02-04T05:27:23;98693.33;;;6.37;100.00
34921;BME280;21128;50.016;20.002;2024-02-04T05:29:50;98697.30;;;6.37;100.00
34921;BME280;21128;50.016;20.002;2024-02-04T05:32:17;98700.55;;;6.36;100.00
34921;BME280;21128;50.016;20.002;2024-02-04T05:34:43;98703.48;;;6.36;100.00
34921;BME280;21128;50.016;20.002;2024-02-04T05:37:10;98708.88;;;6.36;100.00
34921;BME280;21128;50.016;20.002;2024-02-04T05:39:37;98706.05;;;6.35;100.00
34921;BME280;21128;50.016;20.002;2024-02-04T05:42:04;98691.67;;;6.32;100.00
34921;BME280;21128;50.016;20.002;2024-02-04T05:44:30;98692.98;;;6.28;100.00
34921;BME280;21128;50.016;20.002;2024-02-04T05:46:57;98689.15;;;6.24;100.00
34921;BME280;21128;50.016;20.002;2024-02-04T05:49:24;98684.56;;;6.20;100.00
34921;BME280;21128;50.016;20.002;2024-02-04T05:51:51;98690.39;;;6.17;100.00
34921;BME280;21128;50.016;20.002;2024-02-04T05:54:17;98695.16;;;6.14;100.00
34921;BME280;21128;50.016;20.002;2024-02-04T05:56:44;98705.04;;;6.09;100.00
34921;BME280;21128;50.016;20.002;2024-02-04T05:59:11;98713.80;;;6.06;100.00
34921;BME280;21128;50.016;20.002;2024-02-04T06:01:38;98720.31;;;6.03;100.00
34921;BME280;21128;50.016;20.002;2024-02-04T06:04:04;98722.86;;;5.99;100.00
34921;BME280;21128;50.016;20.002;2024-02-04T06:06:31;98717.71;;;5.96;100.00
34921;BME280;21128;50.016;20.002;2024-02-04T06:08:58;98716.41;;;5.92;100.00
34921;BME280;21128;50.016;20.002;2024-02-04T06:11:25;98718.55;;;5.88;100.00
34921;BME280;21128;50.016;20.002;2024-02-04T06:13:51;98717.28;;;5.87;100.00
34921;BME280;21128;50.016;20.002;2024-02-04T06:16:18;98718.33;;;5.85;100.00
34921;BME280;21128;50.016;20.002;2024-02-04T06:18:45;98727.60;;;5.84;100.00
34921;BME280;21128;50.016;20.002;2024-02-04T06:21:12;98731.06;;;5.84;100.00
34921;BME280;21128;50.016;20.002;2024-02-04T06:23:39;98735.64;;;5.84;100.00
34921;BME280;21128;50.016;20.002;2024-02-04T06:26:06;98724.96;;;5.84;100.00
34921;BME280;21128;50.016;20.002;2024-02-04T06:28:33;98727.45;;;5.86;100.00
34921;BME280;21128;50.016;20.002;2024-02-04T06:31:00;98717.16;;;5.86;100.00
34921;BME280;21128;50.016;20.002;2024-02-04T06:33:27;98703.52;;;5.87;100.00
34921;BME280;21128;50.016;20.002;2024-02-04T06:35:53;98696.09;;;5.89;100.00
34921;BME280;21128;50.016;20.002;2024-02-04T06:38:20;98687.89;;;5.92;100.00
34921;BME280;21128;50.016;20.002;2024-02-04T06:40:47;98691.96;;;5.96;100.00
34921;BME280;21128;50.016;20.002;2024-02-04T06:43:14;98696.37;;;6.00;100.00
34921;BME280;21128;50.016;20.002;2024-02-04T06:45:40;98704.65;;;6.05;100.00
34921;BME280;21128;50.016;20.002;2024-02-04T06:48:07;98710.73;;;6.12;100.00
34921;BME280;21128;50.016;20.002;2024-02-04T06:50:35;98715.38;;;6.17;100.00
34921;BME280;21128;50.016;20.002;2024-02-04T06:53:03;98707.41;;;6.21;100.00
34921;BME280;21128;50.016;20.002;2024-02-04T06:55:30;98707.09;;;6.26;100.00
34921;BME280;21128;50.016;20.002;2024-02-04T06:57:56;98707.39;;;6.28;100.00
34921;BME280;21128;50.016;20.002;2024-02-04T07:00:23;98708.41;;;6.31;100.00
34921;BME280;21128;50.016;20.002;2024-02-04T07:02:50;98714.96;;;6.34;100.00
34921;BME280;21128;50.016;20.002;2024-02-04T07:05:17;98714.91;;;6.37;100.00
34921;BME280;21128;50.016;20.002;2024-02-04T07:07:44;98705.54;;;6.39;100.00
34921;BME280;21128;50.016;20.002;2024-02-04T07:10:11;98709.92;;;6.41;100.00
34921;BME280;21128;50.016;20.002;2024-02-04T07:12:37;98703.92;;;6.44;100.00
34921;BME280;21128;50.016;20.002;2024-02-04T07:15:05;98706.98;;;6.49;100.00
34921;BME280;21128;50.016;20.002;2024-02-04T07:17:31;98718.18;;;6.58;100.00
34921;BME280;21128;50.016;20.002;2024-02-04T07:19:58;98712.73;;;6.63;100.00
34921;BME280;21128;50.016;20.002;2024-02-04T07:22:25;98695.20;;;6.68;100.00
34921;BME280;21128;50.016;20.002;2024-02-04T07:24:52;98694.96;;;6.71;100.00
34921;BME280;21128;50.016;20.002;2024-02-04T07:27:19;98689.64;;;6.75;100.00
34921;BME280;21128;50.016;20.002;2024-02-04T07:29:45;98697.58;;;6.78;100.00
34921;BME280;21128;50.016;20.002;2024-02-04T07:32:14;98697.83;;;6.79;100.00
34921;BME280;21128;50.016;20.002;2024-02-04T07:34:41;98705.06;;;6.80;100.00
34921;BME280;21128;50.016;20.002;2024-02-04T07:37:08;98718.94;;;6.79;100.00
34921;BME280;21128;50.016;20.002;2024-02-04T07:39:34;98713.95;;;6.78;100.00
34921;BME280;21128;50.016;20.002;2024-02-04T07:42:01;98714.34;;;6.75;100.00
34921;BME280;21128;50.016;20.002;2024-02-04T07:44:29;98718.96;;;6.71;100.00
34921;BME280;21128;50.016;20.002;2024-02-04T07:46:56;98722.70;;;6.71;100.00
34921;BME280;21128;50.016;20.002;2024-02-04T07:49:23;98706.73;;;6.72;100.00
34921;BME280;21128;50.016;20.002;2024-02-04T07:51:49;98716.94;;;6.75;100.00
34921;BME280;21128;50.016;20.002;2024-02-04T07:54:16;98714.91;;;6.77;100.00
34921;BME280;21128;50.016;20.002;2024-02-04T07:56:43;98712.67;;;6.81;100.00
34921;BME280;21128;50.016;20.002;2024-02-04T07:59:09;98724.48;;;6.86;100.00
34921;BME280;21128;50.016;20.002;2024-02-04T08:01:36;98726.67;;;6.87;100.00
34921;BME280;21128;50.016;20.002;2024-02-04T08:04:03;98727.11;;;6.83;100.00
34921;BME280;21128;50.016;20.002;2024-02-04T08:06:32;98711.77;;;6.81;100.00
34921;BME280;21128;50.016;20.002;2024-02-04T08:09:01;98718.13;;;6.87;100.00
34921;BME280;21128;50.016;20.002;2024-02-04T08:11:27;98732.41;;;6.93;100.00
34921;BME280;21128;50.016;20.002;2024-02-04T08:13:54;98734.99;;;6.94;100.00
34921;BME280;21128;50.016;20.002;2024-02-04T08:16:21;98734.29;;;6.91;100.00
34921;BME280;21128;50.016;20.002;2024-02-04T08:18:48;98725.89;;;6.90;100.00
34921;BME280;21128;50.016;20.002;2024-02-04T08:21:15;98740.21;;;6.96;100.00
34921;BME280;21128;50.016;20.002;2024-02-04T08:23:41;98736.05;;;7.04;100.00
34921;BME280;21128;50.016;20.002;2024-02-04T08:26:08;98747.00;;;7.07;100.00
34921;BME280;21128;50.016;20.002;2024-02-04T08:28:36;98753.30;;;7.04;100.00
34921;BME280;21128;50.016;20.002;2024-02-04T08:31:03;98754.13;;;6.98;100.00
34921;BME280;21128;50.016;20.002;2024-02-04T08:33:29;98748.95;;;6.91;100.00
34921;BME280;21128;50.016;20.002;2024-02-04T08:35:56;98743.41;;;6.86;100.00
34921;BME280;21128;50.016;20.002;2024-02-04T08:38:23;98751.99;;;6.81;100.00
34921;BME280;21128;50.016;20.002;2024-02-04T08:40:50;98761.21;;;6.79;100.00
34921;BME280;21128;50.016;20.002;2024-02-04T08:43:16;98761.02;;;6.77;100.00
34921;BME280;21128;50.016;20.002;2024-02-04T08:45:43;98769.20;;;6.77;100.00
34921;BME280;21128;50.016;20.002;2024-02-04T08:48:10;98767.07;;;6.77;100.00
34921;BME280;21128;50.016;20.002;2024-02-04T08:50:36;98762.98;;;6.79;100.00
34921;BME280;21128;50.016;20.002;2024-02-04T08:53:03;98761.67;;;6.77;100.00
34921;BME280;21128;50.016;20.002;2024-02-04T08:55:30;98759.27;;;6.80;100.00
34921;BME280;21128;50.016;20.002;2024-02-04T08:57:57;98753.35;;;6.84;100.00
34921;BME280;21128;50.016;20.002;2024-02-04T09:00:23;98757.63;;;6.87;100.00
34921;BME280;21128;50.016;20.002;2024-02-04T09:02:50;98769.05;;;6.88;100.00
34921;BME280;21128;50.016;20.002;2024-02-04T09:05:17;98757.05;;;6.86;100.00
34921;BME280;21128;50.016;20.002;2024-02-04T09:07:45;98765.69;;;6.84;100.00
34921;BME280;21128;50.016;20.002;2024-02-04T09:10:12;98764.58;;;6.81;100.00
34921;BME280;21128;50.016;20.002;2024-02-04T09:12:39;98760.23;;;6.81;100.00
34921;BME280;21128;50.016;20.002;2024-02-04T09:15:06;98763.02;;;6.78;100.00
34921;BME280;21128;50.016;20.002;2024-02-04T09:17:33;98763.09;;;6.79;100.00
34921;BME280;21128;50.016;20.002;2024-02-04T09:20:00;98769.77;;;6.81;100.00
34921;BME280;21128;50.016;20.002;2024-02-04T09:22:27;98775.94;;;6.80;100.00
34921;BME280;21128;50.016;20.002;2024-02-04T09:24:54;98778.02;;;6.80;100.00
34921;BME280;21128;50.016;20.002;2024-02-04T09:27:20;98782.84;;;6.83;100.00
34921;BME280;21128;50.016;20.002;2024-02-04T09:29:47;98782.77;;;6.86;100.00
34921;BME280;21128;50.016;20.002;2024-02-04T09:32:14;98784.39;;;6.88;100.00
34921;BME280;21128;50.016;20.002;2024-02-04T09:34:41;98779.92;;;6.89;100.00
34921;BME280;21128;50.016;20.002;2024-02-04T09:37:07;98785.78;;;6.90;100.00
34921;BME280;21128;50.016;20.002;2024-02-04T09:39:34;98786.11;;;6.90;100.00
34921;BME280;21128;50.016;20.002;2024-02-04T09:42:01;98798.35;;;6.94;100.00
34921;BME280;21128;50.016;20.002;2024-02-04T09:44:28;98802.97;;;6.97;100.00
34921;BME280;21128;50.016;20.002;2024-02-04T09:46:55;98799.23;;;7.00;100.00
34921;BME280;21128;50.016;20.002;2024-02-04T09:49:26;98794.23;;;7.17;100.00
34921;BME280;21128;50.016;20.002;2024-02-04T09:51:56;98785.04;;;7.30;100.00
34921;BME280;21128;50.016;20.002;2024-02-04T09:54:27;98780.86;;;7.43;100.00
34921;BME280;21128;50.016;20.002;2024-02-04T09:56:55;98775.95;;;7.60;100.00
34921;BME280;21128;50.016;20.002;2024-02-04T09:59:22;98779.31;;;7.66;100.00
34921;BME280;21128;50.016;20.002;2024-02-04T10:01:48;98775.17;;;7.85;100.00
34921;BME280;21128;50.016;20.002;2024-02-04T10:04:16;98770.48;;;7.97;100.00
34921;BME280;21128;50.016;20.002;2024-02-04T10:06:42;98757.51;;;7.96;100.00
34921;BME280;21128;50.016;20.002;2024-02-04T10:09:09;98746.86;;;8.02;100.00
34921;BME280;21128;50.016;20.002;2024-02-04T10:11:36;98748.23;;;8.00;100.00
34921;BME280;21128;50.016;20.002;2024-02-04T10:14:03;98750.59;;;7.83;100.00
34921;BME280;21128;50.016;20.002;2024-02-04T10:16:30;98755.95;;;7.98;100.00
34921;BME280;21128;50.016;20.002;2024-02-04T10:18:57;98750.42;;;7.89;100.00
34921;BME280;21128;50.016;20.002;2024-02-04T10:21:24;98753.80;;;7.69;100.00
34921;BME280;21128;50.016;20.002;2024-02-04T10:23:51;98749.95;;;7.50;100.00
34921;BME280;21128;50.016;20.002;2024-02-04T10:26:18;98747.09;;;7.45;100.00
34921;BME280;21128;50.016;20.002;2024-02-04T10:28:48;98740.14;;;7.42;100.00
34921;BME280;21128;50.016;20.002;2024-02-04T10:31:15;98737.43;;;7.45;100.00
34921;BME280;21128;50.016;20.002;2024-02-04T10:33:43;98738.80;;;7.50;100.00
34921;BME280;21128;50.016;20.002;2024-02-04T10:36:10;98723.56;;;7.51;100.00
34921;BME280;21128;50.016;20.002;2024-02-04T10:38:37;98721.00;;;7.57;100.00
34921;BME280;21128;50.016;20.002;2024-02-04T10:41:06;98704.46;;;7.67;100.00
34921;BME280;21128;50.016;20.002;2024-02-04T10:43:34;98706.75;;;7.83;100.00
34921;BME280;21128;50.016;20.002;2024-02-04T10:46:08;98696.02;;;7.91;100.00
34921;BME280;21128;50.016;20.002;2024-02-04T10:48:37;98690.52;;;7.96;100.00
34921;BME280;21128;50.016;20.002;2024-02-04T10:51:15;98684.13;;;8.03;100.00
34921;BME280;21128;50.016;20.002;2024-02-04T10:53:43;98682.34;;;8.10;100.00
34921;BME280;21128;50.016;20.002;2024-02-04T10:56:20;98683.48;;;8.11;100.00
34921;BME280;21128;50.016;20.002;2024-02-04T10:58:49;98682.43;;;8.13;100.00
34921;BME280;21128;50.016;20.002;2024-02-04T11:01:16;98676.95;;;8.12;100.00
34921;BME280;21128;50.016;20.002;2024-02-04T11:03:45;98675.77;;;8.15;100.00
34921;BME280;21128;50.016;20.002;2024-02-04T11:06:13;98671.77;;;8.24;100.00
34921;BME280;21128;50.016;20.002;2024-02-04T11:08:40;98665.67;;;8.28;100.00
34921;BME280;21128;50.016;20.002;2024-02-04T11:11:07;98653.76;;;8.35;100.00
34921;BME280;21128;50.016;20.002;2024-02-04T11:13:35;98650.41;;;8.37;100.00
34921;BME280;21128;50.016;20.002;2024-02-04T11:16:07;98643.40;;;8.43;100.00
34921;BME280;21128;50.016;20.002;2024-02-04T11:19:20;98638.63;;;8.50;100.00
34921;BME280;21128;50.016;20.002;2024-02-04T11:26:54;98637.61;;;8.40;100.00
34921;BME280;21128;50.016;20.002;2024-02-04T11:29:21;98639.31;;;8.36;100.00
34921;BME280;21128;50.016;20.002;2024-02-04T11:31:48;98631.58;;;8.35;100.00
34921;BME280;21128;50.016;20.002;2024-02-04T11:34:16;98629.07;;;8.39;100.00
34921;BME280;21128;50.016;20.002;2024-02-04T11:36:43;98622.52;;;8.40;100.00
34921;BME280;21128;50.016;20.002;2024-02-04T11:39:17;98611.60;;;8.43;100.00
34921;BME280;21128;50.016;20.002;2024-02-04T11:41:45;98608.89;;;8.53;100.00
34921;BME280;21128;50.016;20.002;2024-02-04T11:44:23;98608.20;;;8.62;100.00
34921;BME280;21128;50.016;20.002;2024-02-04T11:46:50;98603.08;;;8.70;100.00
34921;BME280;21128;50.016;20.002;2024-02-04T11:49:18;98599.78;;;8.79;100.00
34921;BME280;21128;50.016;20.002;2024-02-04T11:51:51;98601.55;;;8.78;100.00
34921;BME280;21128;50.016;20.002;2024-02-04T11:54:20;98600.98;;;8.85;100.00
34921;BME280;21128;50.016;20.002;2024-02-04T11:56:49;98598.89;;;8.90;100.00
34921;BME280;21128;50.016;20.002;2024-02-04T11:59:20;98592.56;;;8.87;100.00
34921;BME280;21128;50.016;20.002;2024-02-04T12:01:57;98594.15;;;8.91;100.00
34921;BME280;21128;50.016;20.002;2024-02-04T12:04:27;98581.39;;;8.85;100.00
34921;BME280;21128;50.016;20.002;2024-02-04T12:06:55;98568.02;;;8.82;100.00
34921;BME280;21128;50.016;20.002;2024-02-04T12:09:22;98545.13;;;8.77;100.00
34921;BME280;21128;50.016;20.002;2024-02-04T12:11:49;98541.25;;;8.73;100.00
34921;BME280;21128;50.016;20.002;2024-02-04T12:14:17;98530.36;;;8.71;100.00
34921;BME280;21128;50.016;20.002;2024-02-04T12:16:45;98532.93;;;8.62;100.00
34921;BME280;21128;50.016;20.002;2024-02-04T12:19:12;98535.27;;;8.52;100.00
34921;BME280;21128;50.016;20.002;2024-02-04T12:21:39;98522.71;;;8.44;100.00
34921;BME280;21128;50.016;20.002;2024-02-04T12:24:06;98525.38;;;8.34;100.00
34921;BME280;21128;50.016;20.002;2024-02-04T12:26:33;98519.04;;;8.22;100.00
34921;BME280;21128;50.016;20.002;2024-02-04T12:29:00;98514.05;;;8.09;100.00
34921;BME280;21128;50.016;20.002;2024-02-04T12:31:27;98511.50;;;8.01;100.00
34921;BME280;21128;50.016;20.002;2024-02-04T12:33:59;98510.95;;;7.93;100.00
34921;BME280;21128;50.016;20.002;2024-02-04T12:36:28;98503.75;;;7.89;100.00
34921;BME280;21128;50.016;20.002;2024-02-04T12:39:00;98499.73;;;7.87;100.00
34921;BME280;21128;50.016;20.002;2024-02-04T12:41:28;98496.27;;;7.85;100.00
34921;BME280;21128;50.016;20.002;2024-02-04T12:43:58;98488.60;;;7.79;100.00
34921;BME280;21128;50.016;20.002;2024-02-04T12:46:26;98485.48;;;7.75;100.00
34921;BME280;21128;50.016;20.002;2024-02-04T12:48:54;98478.59;;;7.72;100.00
34921;BME280;21128;50.016;20.002;2024-02-04T12:51:27;98482.19;;;7.67;100.00
34921;BME280;21128;50.016;20.002;2024-02-04T12:54:08;98487.71;;;7.59;100.00
34921;BME280;21128;50.016;20.002;2024-02-04T12:56:54;98478.67;;;7.53;100.00
34921;BME280;21128;50.016;20.002;2024-02-04T13:02:01;98478.16;;;7.51;100.00
34921;BME280;21128;50.016;20.002;2024-02-04T13:04:37;98476.90;;;7.47;100.00
34921;BME280;21128;50.016;20.002;2024-02-04T13:07:14;98479.64;;;7.46;100.00